KCAR/CAR METAR and TAF weather

Enter ICAO airport designator
Station Type Date Time Source
KCAR METAR 2024/02/26 18:54 UTC NOAA

KCAR 261854Z AUTO 21007KT 10SM OVC032 03/M04 A2975 RMK AO2 SLP086 T00281044 $


Station Type Date Time Source
KCAR Decoded METAR 2024/02/26 18:54 UTC NOAA

CARIBOU MUNICIPAL AIRPORT, ME, United States (KCAR) 46-52N 68-01W 191M
Feb 26, 2024 - 01:54 PM EST / 2024.02.26 1854 UTC
Wind: from the SSW (210 degrees) at 8 MPH (7 KT):0
Visibility: 10 mile(s):0
Sky conditions: overcast
Temperature: 37.0 F (2.8 C)
Dew Point: 24.1 F (-4.4 C)
Relative Humidity: 59%
Pressure (altimeter): 29.75 in. Hg (1007 hPa)
ob: KCAR 261854Z AUTO 21007KT 10SM OVC032 03/M04 A2975 RMK AO2 SLP086 T00281044
cycle: 19

Station Type Date Time Source
KCAR TAF 2024/02/26 18:36 UTC NOAA